sensor_id;sensor_type;location;lat;lon;timestamp;pressure;altitude;pressure_sealevel;temperature;humidity
36932;BME280;22847;42.654;23.370;2022-07-15T00:02:23;94762.81;;;21.91;47.93
36932;BME280;22847;42.654;23.370;2022-07-15T00:04:49;94752.06;;;21.79;48.20
36932;BME280;22847;42.654;23.370;2022-07-15T00:07:15;94482.59;;;20.12;48.23
36932;BME280;22847;42.654;23.370;2022-07-15T00:09:41;94734.00;;;21.50;48.07
36932;BME280;22847;42.654;23.370;2022-07-15T00:12:25;94724.84;;;21.39;48.31
36932;BME280;22847;42.654;23.370;2022-07-15T00:14:50;94760.25;;;21.77;47.43
36932;BME280;22847;42.654;23.370;2022-07-15T00:17:16;94756.38;;;21.73;47.98
36932;BME280;22847;42.654;23.370;2022-07-15T00:19:41;94761.94;;;21.65;48.41
36932;BME280;22847;42.654;23.370;2022-07-15T00:22:07;94715.28;;;21.31;49.08
36932;BME280;22847;42.654;23.370;2022-07-15T00:24:33;94534.91;;;20.16;48.99
36932;BME280;22847;42.654;23.370;2022-07-15T00:26:58;94788.91;;;21.49;48.99
36932;BME280;22847;42.654;23.370;2022-07-15T00:29:24;94770.56;;;21.41;48.95
36932;BME280;22847;42.654;23.370;2022-07-15T00:31:51;94771.59;;;21.40;49.02
36932;BME280;22847;42.654;23.370;2022-07-15T00:34:16;94756.94;;;21.24;49.07
36932;BME280;22847;42.654;23.370;2022-07-15T00:36:42;94718.81;;;21.06;48.76
36932;BME280;22847;42.654;23.370;2022-07-15T00:39:07;94773.06;;;21.23;48.52
36932;BME280;22847;42.654;23.370;2022-07-15T00:41:38;94730.22;;;21.00;48.78
36932;BME280;22847;42.654;23.370;2022-07-15T00:44:03;94788.34;;;21.08;48.81
36932;BME280;22847;42.654;23.370;2022-07-15T00:46:29;94743.50;;;21.13;48.45
36932;BME280;22847;42.654;23.370;2022-07-15T00:48:57;94719.44;;;21.01;48.70
36932;BME280;22847;42.654;23.370;2022-07-15T00:51:22;94645.72;;;20.45;48.78
36932;BME280;22847;42.654;23.370;2022-07-15T00:53:48;94643.66;;;20.54;48.33
36932;BME280;22847;42.654;23.370;2022-07-15T00:56:15;94511.13;;;19.70;48.54
36932;BME280;22847;42.654;23.370;2022-07-15T00:58:42;94675.25;;;20.69;48.95
36932;BME280;22847;42.654;23.370;2022-07-15T01:01:10;94534.53;;;19.86;49.18
36932;BME280;22847;42.654;23.370;2022-07-15T01:03:36;94711.47;;;21.01;49.55
36932;BME280;22847;42.654;23.370;2022-07-15T01:06:02;94718.19;;;21.17;49.41
36932;BME280;22847;42.654;23.370;2022-07-15T01:08:28;94738.16;;;21.26;48.44
36932;BME280;22847;42.654;23.370;2022-07-15T01:10:54;94735.94;;;21.23;48.13
36932;BME280;22847;42.654;23.370;2022-07-15T01:13:19;94527.81;;;19.97;51.14
36932;BME280;22847;42.654;23.370;2022-07-15T01:15:46;94708.84;;;20.88;48.55
36932;BME280;22847;42.654;23.370;2022-07-15T01:18:12;94398.88;;;18.46;49.64
36932;BME280;22847;42.654;23.370;2022-07-15T01:20:39;94714.59;;;19.52;51.97
36932;BME280;22847;42.654;23.370;2022-07-15T01:23:05;94739.66;;;19.63;52.06
36932;BME280;22847;42.654;23.370;2022-07-15T01:25:30;94738.44;;;19.65;51.76
36932;BME280;22847;42.654;23.370;2022-07-15T01:27:56;94712.22;;;19.23;52.86
36932;BME280;22847;42.654;23.370;2022-07-15T01:30:22;94519.72;;;17.75;53.10
36932;BME280;22847;42.654;23.370;2022-07-15T01:32:47;94549.94;;;18.35;52.26
36932;BME280;22847;42.654;23.370;2022-07-15T01:35:13;94729.56;;;19.92;51.91
36932;BME280;22847;42.654;23.370;2022-07-15T01:37:38;94695.19;;;20.12;50.32
36932;BME280;22847;42.654;23.370;2022-07-15T01:40:05;94752.84;;;20.23;49.69
36932;BME280;22847;42.654;23.370;2022-07-15T01:42:32;94724.78;;;20.55;50.00
36932;BME280;22847;42.654;23.370;2022-07-15T01:44:57;94484.88;;;19.36;49.52
36932;BME280;22847;42.654;23.370;2022-07-15T01:47:23;94603.75;;;19.90;48.31
36932;BME280;22847;42.654;23.370;2022-07-15T01:49:48;94710.09;;;20.46;48.68
36932;BME280;22847;42.654;23.370;2022-07-15T01:52:14;94510.03;;;19.18;48.32
36932;BME280;22847;42.654;23.370;2022-07-15T01:54:39;94727.84;;;20.65;48.58
36932;BME280;22847;42.654;23.370;2022-07-15T01:57:05;94727.03;;;20.52;48.71
36932;BME280;22847;42.654;23.370;2022-07-15T01:59:30;94701.16;;;20.34;51.29
36932;BME280;22847;42.654;23.370;2022-07-15T02:01:57;94737.22;;;20.48;49.72
36932;BME280;22847;42.654;23.370;2022-07-15T02:04:23;94611.44;;;19.65;50.86
36932;BME280;22847;42.654;23.370;2022-07-15T02:06:49;94753.72;;;20.30;49.69
36932;BME280;22847;42.654;23.370;2022-07-15T02:09:14;94704.41;;;20.56;51.10
36932;BME280;22847;42.654;23.370;2022-07-15T02:11:40;94739.41;;;20.90;50.58
36932;BME280;22847;42.654;23.370;2022-07-15T02:14:05;94754.50;;;21.10;51.19
36932;BME280;22847;42.654;23.370;2022-07-15T02:16:33;94772.84;;;21.05;51.26
36932;BME280;22847;42.654;23.370;2022-07-15T02:18:58;94779.81;;;21.19;49.55
36932;BME280;22847;42.654;23.370;2022-07-15T02:21:25;94766.50;;;21.32;50.04
36932;BME280;22847;42.654;23.370;2022-07-15T02:23:52;94506.47;;;19.85;49.91
36932;BME280;22847;42.654;23.370;2022-07-15T02:26:18;94710.09;;;20.66;47.77
36932;BME280;22847;42.654;23.370;2022-07-15T02:28:43;94737.22;;;20.74;48.56
36932;BME280;22847;42.654;23.370;2022-07-15T02:31:09;94476.84;;;18.96;49.46
36932;BME280;22847;42.654;23.370;2022-07-15T02:33:35;94733.66;;;20.01;49.46
36932;BME280;22847;42.654;23.370;2022-07-15T02:36:00;94747.16;;;19.59;50.54
36932;BME280;22847;42.654;23.370;2022-07-15T02:38:26;94729.50;;;19.25;51.38
36932;BME280;22847;42.654;23.370;2022-07-15T02:40:51;94742.91;;;19.58;50.95
36932;BME280;22847;42.654;23.370;2022-07-15T02:43:17;94731.78;;;19.41;51.08
36932;BME280;22847;42.654;23.370;2022-07-15T02:45:43;94727.75;;;19.04;52.26
36932;BME280;22847;42.654;23.370;2022-07-15T02:48:09;94796.31;;;19.12;54.79
36932;BME280;22847;42.654;23.370;2022-07-15T02:50:35;94574.03;;;17.70;53.65
36932;BME280;22847;42.654;23.370;2022-07-15T02:53:02;94743.34;;;18.93;53.57
36932;BME280;22847;42.654;23.370;2022-07-15T02:55:27;94758.91;;;19.09;53.40
36932;BME280;22847;42.654;23.370;2022-07-15T02:57:53;94659.69;;;18.51;53.80
36932;BME280;22847;42.654;23.370;2022-07-15T03:00:19;94730.00;;;18.73;54.17
36932;BME280;22847;42.654;23.370;2022-07-15T03:02:46;94721.53;;;18.56;54.69
36932;BME280;22847;42.654;23.370;2022-07-15T03:05:13;94742.56;;;18.71;54.89
36932;BME280;22847;42.654;23.370;2022-07-15T03:07:39;94724.94;;;18.78;54.18
36932;BME280;22847;42.654;23.370;2022-07-15T03:10:06;94513.34;;;17.63;53.80
36932;BME280;22847;42.654;23.370;2022-07-15T03:12:32;94736.47;;;18.98;53.96
36932;BME280;22847;42.654;23.370;2022-07-15T03:14:58;94735.47;;;18.99;53.65
36932;BME280;22847;42.654;23.370;2022-07-15T03:17:24;94731.50;;;18.54;54.75
36932;BME280;22847;42.654;23.370;2022-07-15T03:19:49;94591.50;;;17.71;56.14
36932;BME280;22847;42.654;23.370;2022-07-15T03:22:15;94738.19;;;18.85;54.71
36932;BME280;22847;42.654;23.370;2022-07-15T03:24:41;94742.50;;;18.92;54.44
36932;BME280;22847;42.654;23.370;2022-07-15T03:27:06;94685.56;;;18.55;54.58
36932;BME280;22847;42.654;23.370;2022-07-15T03:29:31;94742.09;;;18.61;55.24
36932;BME280;22847;42.654;23.370;2022-07-15T03:31:57;94501.88;;;17.07;55.79
36932;BME280;22847;42.654;23.370;2022-07-15T03:34:23;94762.31;;;18.75;55.21
36932;BME280;22847;42.654;23.370;2022-07-15T03:36:52;94739.19;;;18.77;54.87
36932;BME280;22847;42.654;23.370;2022-07-15T03:39:18;94556.22;;;17.72;54.88
36932;BME280;22847;42.654;23.370;2022-07-15T03:41:43;94681.16;;;18.62;54.64
36932;BME280;22847;42.654;23.370;2022-07-15T03:44:09;94530.50;;;17.80;54.51
36932;BME280;22847;42.654;23.370;2022-07-15T03:46:34;94740.97;;;19.04;54.57
36932;BME280;22847;42.654;23.370;2022-07-15T03:49:00;94738.19;;;19.12;53.86
36932;BME280;22847;42.654;23.370;2022-07-15T03:51:26;94728.28;;;18.93;54.47
36932;BME280;22847;42.654;23.370;2022-07-15T03:54:01;94514.78;;;17.66;54.01
36932;BME280;22847;42.654;23.370;2022-07-15T03:56:28;94384.09;;;16.80;54.35
36932;BME280;22847;42.654;23.370;2022-07-15T03:58:54;94648.06;;;18.39;54.38
36932;BME280;22847;42.654;23.370;2022-07-15T04:01:20;94579.22;;;17.84;54.78
36932;BME280;22847;42.654;23.370;2022-07-15T04:03:49;94746.63;;;18.46;55.74
36932;BME280;22847;42.654;23.370;2022-07-15T04:06:15;94704.06;;;18.34;55.98
36932;BME280;22847;42.654;23.370;2022-07-15T04:08:41;94735.69;;;19.04;56.70
36932;BME280;22847;42.654;23.370;2022-07-15T04:11:08;94742.34;;;19.35;54.21
36932;BME280;22847;42.654;23.370;2022-07-15T04:13:33;94722.88;;;20.03;52.05
36932;BME280;22847;42.654;23.370;2022-07-15T04:15:59;94764.09;;;20.58;50.81
36932;BME280;22847;42.654;23.370;2022-07-15T04:18:24;94703.63;;;21.39;48.50
36932;BME280;22847;42.654;23.370;2022-07-15T04:20:50;94609.00;;;21.33;46.50
36932;BME280;22847;42.654;23.370;2022-07-15T04:23:15;94674.31;;;22.59;45.24
36932;BME280;22847;42.654;23.370;2022-07-15T04:25:41;94713.75;;;23.30;43.97
36932;BME280;22847;42.654;23.370;2022-07-15T04:28:07;94718.13;;;23.61;42.95
36932;BME280;22847;42.654;23.370;2022-07-15T04:30:33;94735.19;;;22.67;44.77
36932;BME280;22847;42.654;23.370;2022-07-15T04:32:58;94688.13;;;22.18;45.71
36932;BME280;22847;42.654;23.370;2022-07-15T04:35:24;94715.00;;;22.04;46.07
36932;BME280;22847;42.654;23.370;2022-07-15T04:37:49;94522.06;;;20.90;46.35
36932;BME280;22847;42.654;23.370;2022-07-15T04:40:15;94777.53;;;22.94;45.09
36932;BME280;22847;42.654;23.370;2022-07-15T04:42:40;94718.34;;;23.41;44.02
36932;BME280;22847;42.654;23.370;2022-07-15T04:45:06;94745.69;;;23.85;43.61
36932;BME280;22847;42.654;23.370;2022-07-15T04:47:32;94746.81;;;24.07;42.57
36932;BME280;22847;42.654;23.370;2022-07-15T04:49:57;94735.97;;;24.50;42.06
36932;BME280;22847;42.654;23.370;2022-07-15T04:52:46;94742.28;;;24.67;41.23
36932;BME280;22847;42.654;23.370;2022-07-15T04:55:12;94758.44;;;24.84;40.95
36932;BME280;22847;42.654;23.370;2022-07-15T04:57:37;94732.19;;;24.69;41.51
36932;BME280;22847;42.654;23.370;2022-07-15T05:00:05;94714.00;;;24.78;41.67
36932;BME280;22847;42.654;23.370;2022-07-15T05:02:31;94764.50;;;25.03;41.17
36932;BME280;22847;42.654;23.370;2022-07-15T05:04:56;94746.75;;;25.20;40.94
36932;BME280;22847;42.654;23.370;2022-07-15T05:07:22;94748.00;;;25.17;41.26
36932;BME280;22847;42.654;23.370;2022-07-15T05:09:47;94693.38;;;25.08;40.46
36932;BME280;22847;42.654;23.370;2022-07-15T05:12:13;94708.19;;;25.51;40.29
36932;BME280;22847;42.654;23.370;2022-07-15T05:14:38;94498.72;;;24.15;40.58
36932;BME280;22847;42.654;23.370;2022-07-15T05:17:06;94739.97;;;25.75;40.07
36932;BME280;22847;42.654;23.370;2022-07-15T05:19:32;94604.28;;;25.09;39.88
36932;BME280;22847;42.654;23.370;2022-07-15T05:21:57;94585.44;;;25.27;40.13
36932;BME280;22847;42.654;23.370;2022-07-15T05:24:23;94742.16;;;26.47;39.76
36932;BME280;22847;42.654;23.370;2022-07-15T05:26:48;94732.13;;;26.54;39.73
36932;BME280;22847;42.654;23.370;2022-07-15T05:29:14;94733.22;;;26.25;39.15
36932;BME280;22847;42.654;23.370;2022-07-15T05:31:39;94540.78;;;24.48;38.41
36932;BME280;22847;42.654;23.370;2022-07-15T05:34:04;94715.28;;;25.22;37.94
36932;BME280;22847;42.654;23.370;2022-07-15T05:36:30;94749.41;;;25.55;37.42
36932;BME280;22847;42.654;23.370;2022-07-15T05:38:56;94721.75;;;25.72;37.28
36932;BME280;22847;42.654;23.370;2022-07-15T05:41:21;94734.00;;;25.97;37.84
36932;BME280;22847;42.654;23.370;2022-07-15T05:43:46;94742.84;;;26.26;37.91
36932;BME280;22847;42.654;23.370;2022-07-15T05:46:13;94549.78;;;25.33;38.63
36932;BME280;22847;42.654;23.370;2022-07-15T05:48:38;94675.94;;;26.09;37.68
36932;BME280;22847;42.654;23.370;2022-07-15T05:51:06;94711.91;;;25.90;38.80
36932;BME280;22847;42.654;23.370;2022-07-15T05:53:32;94733.53;;;26.16;39.47
36932;BME280;22847;42.654;23.370;2022-07-15T05:55:58;94730.41;;;25.91;39.53
36932;BME280;22847;42.654;23.370;2022-07-15T05:58:23;94583.94;;;25.20;39.15
36932;BME280;22847;42.654;23.370;2022-07-15T06:00:52;94764.91;;;26.33;38.07
36932;BME280;22847;42.654;23.370;2022-07-15T06:03:18;94745.53;;;26.14;38.69
36932;BME280;22847;42.654;23.370;2022-07-15T06:05:43;94731.59;;;26.24;39.29
36932;BME280;22847;42.654;23.370;2022-07-15T06:08:09;94677.91;;;26.42;38.80
36932;BME280;22847;42.654;23.370;2022-07-15T06:10:36;94732.06;;;26.82;37.93
36932;BME280;22847;42.654;23.370;2022-07-15T06:13:02;94747.44;;;26.42;38.45
36932;BME280;22847;42.654;23.370;2022-07-15T06:15:27;94760.22;;;26.40;38.34
36932;BME280;22847;42.654;23.370;2022-07-15T06:17:53;94588.69;;;25.29;38.95
36932;BME280;22847;42.654;23.370;2022-07-15T06:20:19;94723.09;;;26.43;38.91
36932;BME280;22847;42.654;23.370;2022-07-15T06:22:44;94585.38;;;25.79;38.40
36932;BME280;22847;42.654;23.370;2022-07-15T06:25:11;94744.19;;;27.01;37.04
36932;BME280;22847;42.654;23.370;2022-07-15T06:27:36;94732.41;;;27.19;37.18
36932;BME280;22847;42.654;23.370;2022-07-15T06:30:03;94651.06;;;26.87;36.43
36932;BME280;22847;42.654;23.370;2022-07-15T06:32:29;94741.94;;;27.92;35.98
36932;BME280;22847;42.654;23.370;2022-07-15T06:34:54;94702.00;;;27.90;35.98
36932;BME280;22847;42.654;23.370;2022-07-15T06:37:20;94572.88;;;27.23;35.97
36932;BME280;22847;42.654;23.370;2022-07-15T06:39:46;94610.16;;;27.73;35.83
36932;BME280;22847;42.654;23.370;2022-07-15T06:42:11;94725.16;;;28.45;36.04
36932;BME280;22847;42.654;23.370;2022-07-15T06:44:37;94729.03;;;28.91;35.79
36932;BME280;22847;42.654;23.370;2022-07-15T06:47:02;94726.81;;;29.15;35.05
36932;BME280;22847;42.654;23.370;2022-07-15T06:49:29;94676.88;;;28.77;35.19
36932;BME280;22847;42.654;23.370;2022-07-15T06:51:54;94736.53;;;28.84;35.69
36932;BME280;22847;42.654;23.370;2022-07-15T06:54:21;94544.69;;;27.64;36.76
36932;BME280;22847;42.654;23.370;2022-07-15T06:56:47;94578.09;;;28.10;35.54
36932;BME280;22847;42.654;23.370;2022-07-15T06:59:12;94721.88;;;29.02;36.03
36932;BME280;22847;42.654;23.370;2022-07-15T07:01:38;94719.44;;;29.00;36.08
36932;BME280;22847;42.654;23.370;2022-07-15T07:04:04;94709.53;;;29.01;35.96
36932;BME280;22847;42.654;23.370;2022-07-15T07:06:29;94666.19;;;28.87;36.03
36932;BME280;22847;42.654;23.370;2022-07-15T07:08:55;94515.34;;;27.79;35.62
36932;BME280;22847;42.654;23.370;2022-07-15T07:11:21;94706.78;;;28.96;35.76
36932;BME280;22847;42.654;23.370;2022-07-15T07:13:47;94742.94;;;29.15;35.58
36932;BME280;22847;42.654;23.370;2022-07-15T07:16:13;94496.91;;;27.56;35.16
36932;BME280;22847;42.654;23.370;2022-07-15T07:18:39;94517.03;;;27.59;36.51
36932;BME280;22847;42.654;23.370;2022-07-15T07:21:05;94664.25;;;28.77;35.23
36932;BME280;22847;42.654;23.370;2022-07-15T07:23:31;94723.84;;;29.11;35.50
36932;BME280;22847;42.654;23.370;2022-07-15T07:25:57;94720.69;;;29.61;34.94
36932;BME280;22847;42.654;23.370;2022-07-15T07:28:23;94713.13;;;29.53;35.09
36932;BME280;22847;42.654;23.370;2022-07-15T07:30:49;94707.31;;;29.72;34.01
36932;BME280;22847;42.654;23.370;2022-07-15T07:33:20;94703.03;;;29.86;34.02
36932;BME280;22847;42.654;23.370;2022-07-15T07:35:45;94670.72;;;29.65;33.77
36932;BME280;22847;42.654;23.370;2022-07-15T07:38:11;94627.00;;;28.81;33.62
36932;BME280;22847;42.654;23.370;2022-07-15T07:40:37;94708.81;;;29.52;33.37
36932;BME280;22847;42.654;23.370;2022-07-15T07:43:03;94710.09;;;29.97;33.12
36932;BME280;22847;42.654;23.370;2022-07-15T07:45:28;94674.13;;;29.51;32.96
36932;BME280;22847;42.654;23.370;2022-07-15T07:47:55;94654.91;;;29.22;33.61
36932;BME280;22847;42.654;23.370;2022-07-15T07:50:21;94703.81;;;29.71;32.83
36932;BME280;22847;42.654;23.370;2022-07-15T07:52:46;94701.66;;;29.73;31.78
36932;BME280;22847;42.654;23.370;2022-07-15T07:55:12;94710.66;;;30.04;31.61
36932;BME280;22847;42.654;23.370;2022-07-15T07:57:49;94729.94;;;30.63;31.22
36932;BME280;22847;42.654;23.370;2022-07-15T08:00:16;94708.16;;;30.80;31.53
36932;BME280;22847;42.654;23.370;2022-07-15T08:02:41;94488.47;;;29.62;31.49
36932;BME280;22847;42.654;23.370;2022-07-15T08:05:07;94518.34;;;29.76;31.49
36932;BME280;22847;42.654;23.370;2022-07-15T08:07:34;94683.09;;;30.79;32.21
36932;BME280;22847;42.654;23.370;2022-07-15T08:10:00;94511.59;;;29.74;32.08
36932;BME280;22847;42.654;23.370;2022-07-15T08:12:26;94669.38;;;30.71;32.66
36932;BME280;22847;42.654;23.370;2022-07-15T08:14:51;94619.75;;;30.01;33.13
36932;BME280;22847;42.654;23.370;2022-07-15T08:17:20;94616.53;;;29.99;32.44
36932;BME280;22847;42.654;23.370;2022-07-15T08:19:46;94695.22;;;30.92;31.81
36932;BME280;22847;42.654;23.370;2022-07-15T08:22:11;94656.97;;;30.85;32.09
36932;BME280;22847;42.654;23.370;2022-07-15T08:24:36;94541.78;;;30.21;31.86
36932;BME280;22847;42.654;23.370;2022-07-15T08:27:02;94691.13;;;31.30;31.38
36932;BME280;22847;42.654;23.370;2022-07-15T08:29:27;94587.00;;;30.65;31.21
36932;BME280;22847;42.654;23.370;2022-07-15T08:31:53;94672.81;;;31.37;30.64
36932;BME280;22847;42.654;23.370;2022-07-15T08:34:18;94720.25;;;31.13;30.75
36932;BME280;22847;42.654;23.370;2022-07-15T08:36:44;94536.13;;;30.07;30.72
36932;BME280;22847;42.654;23.370;2022-07-15T08:39:09;94596.41;;;30.47;31.04
36932;BME280;22847;42.654;23.370;2022-07-15T08:41:35;94676.66;;;31.06;31.79
36932;BME280;22847;42.654;23.370;2022-07-15T08:44:05;94677.72;;;31.05;31.52
36932;BME280;22847;42.654;23.370;2022-07-15T08:46:32;94513.25;;;30.20;30.76
36932;BME280;22847;42.654;23.370;2022-07-15T08:49:04;94504.34;;;30.40;30.46
36932;BME280;22847;42.654;23.370;2022-07-15T08:51:30;94688.41;;;31.45;29.72
36932;BME280;22847;42.654;23.370;2022-07-15T08:53:57;94662.81;;;31.42;30.00
36932;BME280;22847;42.654;23.370;2022-07-15T08:56:23;94679.53;;;31.39;30.58
36932;BME280;22847;42.654;23.370;2022-07-15T08:58:49;94668.25;;;31.27;30.58
36932;BME280;22847;42.654;23.370;2022-07-15T09:01:14;94481.25;;;30.19;30.01
36932;BME280;22847;42.654;23.370;2022-07-15T09:03:41;94669.53;;;31.50;30.75
36932;BME280;22847;42.654;23.370;2022-07-15T09:06:07;94680.06;;;31.52;30.47
36932;BME280;22847;42.654;23.370;2022-07-15T09:08:32;94672.59;;;31.08;29.54
36932;BME280;22847;42.654;23.370;2022-07-15T09:11:00;94484.75;;;30.09;29.03
36932;BME280;22847;42.654;23.370;2022-07-15T09:13:34;94668.78;;;31.29;29.25
36932;BME280;22847;42.654;23.370;2022-07-15T09:16:09;94664.19;;;31.35;29.35
36932;BME280;22847;42.654;23.370;2022-07-15T09:18:38;94678.69;;;31.49;29.86
36932;BME280;22847;42.654;23.370;2022-07-15T09:21:25;94657.44;;;31.42;29.59
36932;BME280;22847;42.654;23.370;2022-07-15T09:23:54;94657.47;;;31.22;29.08
36932;BME280;22847;42.654;23.370;2022-07-15T09:26:33;94657.69;;;31.46;30.16
36932;BME280;22847;42.654;23.370;2022-07-15T09:29:04;94687.09;;;31.42;29.37
36932;BME280;22847;42.654;23.370;2022-07-15T09:31:57;94674.66;;;31.52;29.34
36932;BME280;22847;42.654;23.370;2022-07-15T09:35:01;94655.50;;;31.58;28.39
36932;BME280;22847;42.654;23.370;2022-07-15T09:37:27;94499.53;;;30.47;29.13
36932;BME280;22847;42.654;23.370;2022-07-15T09:39:54;94685.97;;;31.64;28.70
36932;BME280;22847;42.654;23.370;2022-07-15T09:42:21;94681.91;;;31.61;27.20
36932;BME280;22847;42.654;23.370;2022-07-15T09:44:46;94440.06;;;30.23;28.64
36932;BME280;22847;42.654;23.370;2022-07-15T09:47:19;94658.41;;;31.77;27.84
36932;BME280;22847;42.654;23.370;2022-07-15T09:49:45;94644.56;;;31.94;28.21
36932;BME280;22847;42.654;23.370;2022-07-15T09:52:12;94639.94;;;32.04;28.14
36932;BME280;22847;42.654;23.370;2022-07-15T09:54:47;94502.34;;;31.11;27.76
36932;BME280;22847;42.654;23.370;2022-07-15T09:57:18;94635.34;;;32.05;28.83
36932;BME280;22847;42.654;23.370;2022-07-15T09:59:48;94635.03;;;32.11;28.15
36932;BME280;22847;42.654;23.370;2022-07-15T10:02:14;94589.13;;;31.72;27.44
36932;BME280;22847;42.654;23.370;2022-07-15T10:04:40;94642.00;;;31.68;28.40
36932;BME280;22847;42.654;23.370;2022-07-15T10:07:06;94610.25;;;31.45;29.09
36932;BME280;22847;42.654;23.370;2022-07-15T10:09:34;94616.94;;;31.53;27.86
36932;BME280;22847;42.654;23.370;2022-07-15T10:12:13;94443.56;;;30.29;27.61
36932;BME280;22847;42.654;23.370;2022-07-15T10:30:31;94629.91;;;31.61;28.49
36932;BME280;22847;42.654;23.370;2022-07-15T10:33:20;94637.19;;;31.55;28.23
36932;BME280;22847;42.654;23.370;2022-07-15T10:35:50;94599.47;;;31.40;28.75
36932;BME280;22847;42.654;23.370;2022-07-15T10:38:38;94634.50;;;31.60;27.25
36932;BME280;22847;42.654;23.370;2022-07-15T10:41:10;94484.47;;;30.46;27.57
36932;BME280;22847;42.654;23.370;2022-07-15T10:48:47;94452.34;;;30.75;29.10
36932;BME280;22847;42.654;23.370;2022-07-15T10:53:58;94535.66;;;31.30;27.81
36932;BME280;22847;42.654;23.370;2022-07-15T10:56:37;94428.16;;;30.70;27.78
36932;BME280;22847;42.654;23.370;2022-07-15T11:01:38;94412.09;;;30.29;28.16
36932;BME280;22847;42.654;23.370;2022-07-15T11:04:19;94395.75;;;29.85;27.38
36932;BME280;22847;42.654;23.370;2022-07-15T11:09:57;94608.78;;;30.93;26.54
36932;BME280;22847;42.654;23.370;2022-07-15T11:15:13;94607.09;;;31.18;26.55
36932;BME280;22847;42.654;23.370;2022-07-15T11:17:40;94593.84;;;31.36;26.42
36932;BME280;22847;42.654;23.370;2022-07-15T11:20:12;94473.94;;;30.60;25.31
36932;BME280;22847;42.654;23.370;2022-07-15T11:22:44;94588.69;;;31.45;25.64
36932;BME280;22847;42.654;23.370;2022-07-15T11:25:22;94476.59;;;30.75;25.36
36932;BME280;22847;42.654;23.370;2022-07-15T11:30:34;94585.69;;;31.52;25.54
36932;BME280;22847;42.654;23.370;2022-07-15T11:33:02;94614.56;;;31.46;24.65
36932;BME280;22847;42.654;23.370;2022-07-15T11:35:29;94602.16;;;31.45;25.65
36932;BME280;22847;42.654;23.370;2022-07-15T11:38:00;94443.25;;;30.55;26.35
36932;BME280;22847;42.654;23.370;2022-07-15T11:40:26;94596.19;;;31.58;26.53
36932;BME280;22847;42.654;23.370;2022-07-15T11:43:19;94572.97;;;31.67;25.23
36932;BME280;22847;42.654;23.370;2022-07-15T11:46:05;94457.91;;;30.98;27.13
36932;BME280;22847;42.654;23.370;2022-07-15T11:48:38;94566.31;;;31.44;25.91
36932;BME280;22847;42.654;23.370;2022-07-15T11:51:05;94573.34;;;31.40;26.60
36932;BME280;22847;42.654;23.370;2022-07-15T11:53:40;94427.44;;;30.24;26.04
36932;BME280;22847;42.654;23.370;2022-07-15T11:56:07;94531.44;;;31.04;26.80
36932;BME280;22847;42.654;23.370;2022-07-15T11:58:38;94565.81;;;31.37;25.99
36932;BME280;22847;42.654;23.370;2022-07-15T12:01:12;94565.84;;;31.27;27.50
36932;BME280;22847;42.654;23.370;2022-07-15T12:03:41;94570.47;;;31.12;27.00
36932;BME280;22847;42.654;23.370;2022-07-15T12:06:21;94362.69;;;29.85;26.53
36932;BME280;22847;42.654;23.370;2022-07-15T12:08:55;94566.72;;;31.08;26.67
36932;BME280;22847;42.654;23.370;2022-07-15T12:11:24;94564.34;;;30.05;26.58
36932;BME280;22847;42.654;23.370;2022-07-15T12:13:57;94590.56;;;29.52;27.96
36932;BME280;22847;42.654;23.370;2022-07-15T12:16:26;94566.16;;;29.74;27.21
36932;BME280;22847;42.654;23.370;2022-07-15T12:18:54;94583.38;;;29.73;26.91
36932;BME280;22847;42.654;23.370;2022-07-15T12:21:20;94565.16;;;30.10;27.11
36932;BME280;22847;42.654;23.370;2022-07-15T12:24:03;94561.13;;;30.28;26.65
36932;BME280;22847;42.654;23.370;2022-07-15T12:26:29;94576.47;;;30.07;27.21
36932;BME280;22847;42.654;23.370;2022-07-15T12:29:00;94434.94;;;29.41;26.87
36932;BME280;22847;42.654;23.370;2022-07-15T12:31:31;94368.50;;;28.80;27.72
36932;BME280;22847;42.654;23.370;2022-07-15T12:33:57;94561.16;;;30.33;27.00
36932;BME280;22847;42.654;23.370;2022-07-15T12:36:26;94551.16;;;30.08;26.77
36932;BME280;22847;42.654;23.370;2022-07-15T12:39:14;94550.38;;;30.38;26.33
36932;BME280;22847;42.654;23.370;2022-07-15T12:41:42;94561.69;;;30.61;27.56
36932;BME280;22847;42.654;23.370;2022-07-15T12:44:09;94527.19;;;30.78;26.72
36932;BME280;22847;42.654;23.370;2022-07-15T12:46:51;94387.38;;;29.87;26.54
36932;BME280;22847;42.654;23.370;2022-07-15T12:49:58;94548.78;;;30.47;26.46
36932;BME280;22847;42.654;23.370;2022-07-15T12:52:37;94546.34;;;30.51;26.32
36932;BME280;22847;42.654;23.370;2022-07-15T12:55:16;94547.13;;;30.67;26.56
36932;BME280;22847;42.654;23.370;2022-07-15T12:57:44;94337.72;;;29.44;26.64
36932;BME280;22847;42.654;23.370;2022-07-15T13:00:17;94550.84;;;30.96;26.35
36932;BME280;22847;42.654;23.370;2022-07-15T13:05:25;94537.16;;;30.67;27.04
36932;BME280;22847;42.654;23.370;2022-07-15T13:07:51;94351.41;;;29.52;26.53
36932;BME280;22847;42.654;23.370;2022-07-15T13:10:17;94422.91;;;29.89;26.66
36932;BME280;22847;42.654;23.370;2022-07-15T13:12:42;94569.22;;;30.64;26.44
36932;BME280;22847;42.654;23.370;2022-07-15T13:15:08;94537.47;;;30.55;26.19
36932;BME280;22847;42.654;23.370;2022-07-15T13:17:34;94565.19;;;30.51;26.66
36932;BME280;22847;42.654;23.370;2022-07-15T13:20:04;94559.81;;;30.66;26.42
36932;BME280;22847;42.654;23.370;2022-07-15T13:22:31;94475.56;;;30.45;26.51
36932;BME280;22847;42.654;23.370;2022-07-15T13:24:57;94373.66;;;30.08;25.69
36932;BME280;22847;42.654;23.370;2022-07-15T13:27:24;94520.41;;;31.00;25.70
36932;BME280;22847;42.654;23.370;2022-07-15T13:29:49;94554.91;;;30.93;25.58
36932;BME280;22847;42.654;23.370;2022-07-15T13:32:15;94394.41;;;30.08;25.86